sensor_id;sensor_type;location;lat;lon;timestamp;pressure;altitude;pressure_sealevel;temperature;humidity
58534;BME280;44109;52.398;7.024;2023-04-04T00:00:35;102855.13;;;1.78;100.00
58534;BME280;44109;52.398;7.024;2023-04-04T00:03:03;102845.25;;;1.77;100.00
58534;BME280;44109;52.398;7.024;2023-04-04T00:05:31;102850.97;;;1.75;100.00
58534;BME280;44109;52.398;7.024;2023-04-04T00:08:00;102834.47;;;1.65;100.00
58534;BME280;44109;52.398;7.024;2023-04-04T00:10:28;102853.41;;;1.72;100.00
58534;BME280;44109;52.398;7.024;2023-04-04T00:12:57;102858.00;;;1.66;100.00
58534;BME280;44109;52.398;7.024;2023-04-04T00:15:24;102852.13;;;1.52;100.00
58534;BME280;44109;52.398;7.024;2023-04-04T00:17:53;102828.72;;;1.35;100.00
58534;BME280;44109;52.398;7.024;2023-04-04T00:20:22;102857.06;;;1.50;100.00
58534;BME280;44109;52.398;7.024;2023-04-04T00:22:49;102848.03;;;1.50;100.00
58534;BME280;44109;52.398;7.024;2023-04-04T00:25:17;102850.44;;;1.46;100.00
58534;BME280;44109;52.398;7.024;2023-04-04T00:27:46;102848.47;;;1.42;100.00
58534;BME280;44109;52.398;7.024;2023-04-04T00:30:15;102839.75;;;1.45;100.00
58534;BME280;44109;52.398;7.024;2023-04-04T00:32:43;102836.91;;;1.35;100.00
58534;BME280;44109;52.398;7.024;2023-04-04T00:35:11;102843.66;;;1.27;100.00
58534;BME280;44109;52.398;7.024;2023-04-04T00:37:38;102848.50;;;1.20;100.00
58534;BME280;44109;52.398;7.024;2023-04-04T00:40:07;102844.31;;;1.12;100.00
58534;BME280;44109;52.398;7.024;2023-04-04T00:42:35;102844.53;;;1.06;100.00
58534;BME280;44109;52.398;7.024;2023-04-04T00:45:04;102839.88;;;1.06;100.00
58534;BME280;44109;52.398;7.024;2023-04-04T00:47:35;102831.09;;;1.04;100.00
58534;BME280;44109;52.398;7.024;2023-04-04T00:50:05;102835.19;;;1.01;100.00
58534;BME280;44109;52.398;7.024;2023-04-04T00:52:33;102833.28;;;1.02;100.00
58534;BME280;44109;52.398;7.024;2023-04-04T00:55:03;102827.81;;;1.02;100.00
58534;BME280;44109;52.398;7.024;2023-04-04T00:57:32;102838.34;;;0.93;100.00
58534;BME280;44109;52.398;7.024;2023-04-04T01:00:02;102825.78;;;0.92;100.00
58534;BME280;44109;52.398;7.024;2023-04-04T01:02:31;102836.72;;;0.92;100.00
58534;BME280;44109;52.398;7.024;2023-04-04T01:05:01;102836.06;;;0.85;100.00
58534;BME280;44109;52.398;7.024;2023-04-04T01:07:29;102831.44;;;0.86;100.00
58534;BME280;44109;52.398;7.024;2023-04-04T01:09:57;102824.91;;;0.87;100.00
58534;BME280;44109;52.398;7.024;2023-04-04T01:12:25;102817.59;;;0.92;100.00
58534;BME280;44109;52.398;7.024;2023-04-04T01:14:53;102821.97;;;0.93;100.00
58534;BME280;44109;52.398;7.024;2023-04-04T01:17:20;102821.09;;;0.88;100.00
58534;BME280;44109;52.398;7.024;2023-04-04T01:19:58;102826.59;;;0.93;100.00
58534;BME280;44109;52.398;7.024;2023-04-04T01:22:30;102819.50;;;0.92;100.00
58534;BME280;44109;52.398;7.024;2023-04-04T01:25:01;102756.56;;;0.38;100.00
58534;BME280;44109;52.398;7.024;2023-04-04T01:27:33;102834.03;;;0.75;100.00
58534;BME280;44109;52.398;7.024;2023-04-04T01:30:01;102835.16;;;0.58;100.00
58534;BME280;44109;52.398;7.024;2023-04-04T01:32:35;102834.28;;;0.52;100.00
58534;BME280;44109;52.398;7.024;2023-04-04T01:35:19;102808.44;;;0.21;100.00
58534;BME280;44109;52.398;7.024;2023-04-04T01:37:57;102819.28;;;0.16;100.00
58534;BME280;44109;52.398;7.024;2023-04-04T01:40:34;102835.31;;;0.12;100.00
58534;BME280;44109;52.398;7.024;2023-04-04T01:43:05;102826.91;;;-0.03;100.00
58534;BME280;44109;52.398;7.024;2023-04-04T01:45:33;102835.03;;;-0.08;100.00
58534;BME280;44109;52.398;7.024;2023-04-04T01:48:02;102817.34;;;-0.22;100.00
58534;BME280;44109;52.398;7.024;2023-04-04T01:50:29;102827.97;;;-0.21;100.00
58534;BME280;44109;52.398;7.024;2023-04-04T01:52:57;102832.44;;;-0.32;100.00
58534;BME280;44109;52.398;7.024;2023-04-04T01:55:25;102828.22;;;-0.39;100.00
58534;BME280;44109;52.398;7.024;2023-04-04T01:57:52;102817.97;;;-0.49;100.00
58534;BME280;44109;52.398;7.024;2023-04-04T02:00:21;102820.75;;;-0.61;100.00
58534;BME280;44109;52.398;7.024;2023-04-04T02:02:49;102826.59;;;-0.69;100.00
58534;BME280;44109;52.398;7.024;2023-04-04T02:05:17;102819.75;;;-0.71;100.00
58534;BME280;44109;52.398;7.024;2023-04-04T02:07:46;102816.31;;;-0.79;100.00
58534;BME280;44109;52.398;7.024;2023-04-04T02:10:15;102791.56;;;-1.06;100.00
58534;BME280;44109;52.398;7.024;2023-04-04T02:12:43;102821.97;;;-0.97;100.00
58534;BME280;44109;52.398;7.024;2023-04-04T02:15:11;102813.78;;;-0.97;100.00
58534;BME280;44109;52.398;7.024;2023-04-04T02:17:40;102815.34;;;-1.01;100.00
58534;BME280;44109;52.398;7.024;2023-04-04T02:20:13;102815.16;;;-1.11;100.00
58534;BME280;44109;52.398;7.024;2023-04-04T02:22:49;102814.44;;;-1.18;100.00
58534;BME280;44109;52.398;7.024;2023-04-04T02:25:18;102818.84;;;-1.17;100.00
58534;BME280;44109;52.398;7.024;2023-04-04T02:27:47;102819.91;;;-1.18;100.00
58534;BME280;44109;52.398;7.024;2023-04-04T02:30:15;102819.91;;;-1.18;100.00
58534;BME280;44109;52.398;7.024;2023-04-04T02:32:44;102818.84;;;-1.17;100.00
58534;BME280;44109;52.398;7.024;2023-04-04T02:35:12;102813.31;;;-1.22;100.00
58534;BME280;44109;52.398;7.024;2023-04-04T02:37:39;102817.56;;;-1.26;100.00
58534;BME280;44109;52.398;7.024;2023-04-04T02:40:08;102822.91;;;-1.32;100.00
58534;BME280;44109;52.398;7.024;2023-04-04T02:42:36;102819.13;;;-1.31;100.00
58534;BME280;44109;52.398;7.024;2023-04-04T02:45:04;102816.50;;;-1.37;100.00
58534;BME280;44109;52.398;7.024;2023-04-04T02:47:32;102819.75;;;-1.52;100.00
58534;BME280;44109;52.398;7.024;2023-04-04T02:50:01;102816.31;;;-1.59;100.00
58534;BME280;44109;52.398;7.024;2023-04-04T02:52:29;102809.34;;;-1.67;100.00
58534;BME280;44109;52.398;7.024;2023-04-04T02:54:56;102811.81;;;-1.65;100.00
58534;BME280;44109;52.398;7.024;2023-04-04T02:57:24;102797.19;;;-1.76;100.00
58534;BME280;44109;52.398;7.024;2023-04-04T02:59:52;102794.00;;;-1.85;100.00
58534;BME280;44109;52.398;7.024;2023-04-04T03:02:19;102796.72;;;-1.85;100.00
58534;BME280;44109;52.398;7.024;2023-04-04T03:04:47;102790.44;;;-1.97;100.00
58534;BME280;44109;52.398;7.024;2023-04-04T03:07:16;102797.19;;;-1.99;100.00
58534;BME280;44109;52.398;7.024;2023-04-04T03:09:43;102799.19;;;-1.95;100.00
58534;BME280;44109;52.398;7.024;2023-04-04T03:12:11;102791.53;;;-1.86;100.00
58534;BME280;44109;52.398;7.024;2023-04-04T03:14:38;102777.31;;;-2.00;100.00
58534;BME280;44109;52.398;7.024;2023-04-04T03:17:06;102778.97;;;-1.99;100.00
58534;BME280;44109;52.398;7.024;2023-04-04T03:19:35;102777.19;;;-2.05;100.00
58534;BME280;44109;52.398;7.024;2023-04-04T03:22:03;102776.50;;;-2.12;100.00
58534;BME280;44109;52.398;7.024;2023-04-04T03:24:32;102773.06;;;-2.19;100.00
58534;BME280;44109;52.398;7.024;2023-04-04T03:26:59;102772.34;;;-2.26;100.00
58534;BME280;44109;52.398;7.024;2023-04-04T03:29:27;102767.38;;;-2.30;100.00
58534;BME280;44109;52.398;7.024;2023-04-04T03:31:55;102740.41;;;-2.55;100.00
58534;BME280;44109;52.398;7.024;2023-04-04T03:34:22;102768.66;;;-2.44;100.00
58534;BME280;44109;52.398;7.024;2023-04-04T03:36:52;102770.78;;;-2.46;100.00
58534;BME280;44109;52.398;7.024;2023-04-04T03:39:19;102760.28;;;-2.54;100.00
58534;BME280;44109;52.398;7.024;2023-04-04T03:41:48;102769.59;;;-2.50;100.00
58534;BME280;44109;52.398;7.024;2023-04-04T03:44:16;102772.69;;;-2.35;100.00
58534;BME280;44109;52.398;7.024;2023-04-04T03:46:44;102767.97;;;-2.27;100.00
58534;BME280;44109;52.398;7.024;2023-04-04T03:49:11;102766.44;;;-2.23;100.00
58534;BME280;44109;52.398;7.024;2023-04-04T03:51:39;102771.53;;;-2.27;100.00
58534;BME280;44109;52.398;7.024;2023-04-04T03:54:06;102771.75;;;-2.28;100.00
58534;BME280;44109;52.398;7.024;2023-04-04T03:56:34;102777.31;;;-2.23;100.00
58534;BME280;44109;52.398;7.024;2023-04-04T03:59:04;102773.28;;;-2.09;100.00
58534;BME280;44109;52.398;7.024;2023-04-04T04:01:31;102771.19;;;-2.07;100.00
58534;BME280;44109;52.398;7.024;2023-04-04T04:03:59;102765.00;;;-2.14;100.00
58534;BME280;44109;52.398;7.024;2023-04-04T04:06:27;102763.72;;;-2.12;100.00
58534;BME280;44109;52.398;7.024;2023-04-04T04:08:54;102755.81;;;-2.13;100.00
58534;BME280;44109;52.398;7.024;2023-04-04T04:11:23;102759.47;;;-2.19;100.00
58534;BME280;44109;52.398;7.024;2023-04-04T04:13:50;102751.19;;;-2.24;100.00
58534;BME280;44109;52.398;7.024;2023-04-04T04:16:20;102755.09;;;-2.20;100.00
58534;BME280;44109;52.398;7.024;2023-04-04T04:18:47;102749.78;;;-2.27;100.00
58534;BME280;44109;52.398;7.024;2023-04-04T04:21:15;102745.84;;;-2.43;100.00
58534;BME280;44109;52.398;7.024;2023-04-04T04:23:43;102744.53;;;-2.52;100.00
58534;BME280;44109;52.398;7.024;2023-04-04T04:26:10;102748.09;;;-2.63;100.00
58534;BME280;44109;52.398;7.024;2023-04-04T04:28:38;102727.00;;;-2.79;100.00
58534;BME280;44109;52.398;7.024;2023-04-04T04:31:07;102762.25;;;-2.61;100.00
58534;BME280;44109;52.398;7.024;2023-04-04T04:33:37;102761.06;;;-2.65;100.00
58534;BME280;44109;52.398;7.024;2023-04-04T04:36:05;102755.25;;;-2.69;100.00
58534;BME280;44109;52.398;7.024;2023-04-04T04:38:33;102759.41;;;-2.66;100.00
58534;BME280;44109;52.398;7.024;2023-04-04T04:41:01;102736.53;;;-2.59;100.00
58534;BME280;44109;52.398;7.024;2023-04-04T04:43:29;102743.47;;;-2.51;100.00
58534;BME280;44109;52.398;7.024;2023-04-04T04:45:56;102757.78;;;-2.44;100.00
58534;BME280;44109;52.398;7.024;2023-04-04T04:48:24;102751.25;;;-2.55;100.00
58534;BME280;44109;52.398;7.024;2023-04-04T04:50:53;102758.09;;;-2.64;100.00
58534;BME280;44109;52.398;7.024;2023-04-04T04:53:21;102760.22;;;-2.66;100.00
58534;BME280;44109;52.398;7.024;2023-04-04T04:55:48;102758.38;;;-2.53;100.00
58534;BME280;44109;52.398;7.024;2023-04-04T04:58:17;102747.16;;;-2.34;100.00
58534;BME280;44109;52.398;7.024;2023-04-04T05:00:47;102766.44;;;-2.12;100.00
58534;BME280;44109;52.398;7.024;2023-04-04T05:03:15;102749.19;;;-2.29;100.00
58534;BME280;44109;52.398;7.024;2023-04-04T05:05:42;102763.59;;;-2.28;100.00
58534;BME280;44109;52.398;7.024;2023-04-04T05:08:11;102758.66;;;-2.32;100.00
58534;BME280;44109;52.398;7.024;2023-04-04T05:10:39;102762.28;;;-2.14;100.00
58534;BME280;44109;52.398;7.024;2023-04-04T05:13:07;102768.94;;;-1.98;100.00
58534;BME280;44109;52.398;7.024;2023-04-04T05:15:35;102768.31;;;-1.89;100.00
58534;BME280;44109;52.398;7.024;2023-04-04T05:18:03;102774.69;;;-1.71;100.00
58534;BME280;44109;52.398;7.024;2023-04-04T05:20:30;102786.72;;;-1.56;100.00
58534;BME280;44109;52.398;7.024;2023-04-04T05:22:58;102781.63;;;-1.52;100.00
58534;BME280;44109;52.398;7.024;2023-04-04T05:25:27;102789.78;;;-1.40;100.00
58534;BME280;44109;52.398;7.024;2023-04-04T05:27:55;102789.66;;;-1.34;100.00
58534;BME280;44109;52.398;7.024;2023-04-04T05:30:23;102792.47;;;-1.29;100.00
58534;BME280;44109;52.398;7.024;2023-04-04T05:32:51;102798.50;;;-1.26;100.00
58534;BME280;44109;52.398;7.024;2023-04-04T05:35:18;102799.19;;;-1.19;100.00
58534;BME280;44109;52.398;7.024;2023-04-04T05:37:46;102803.44;;;-1.12;100.00
58534;BME280;44109;52.398;7.024;2023-04-04T05:40:14;102798.53;;;-0.98;100.00
58534;BME280;44109;52.398;7.024;2023-04-04T05:42:43;102805.50;;;-0.90;100.00
58534;BME280;44109;52.398;7.024;2023-04-04T05:45:10;102801.16;;;-0.74;100.00
58534;BME280;44109;52.398;7.024;2023-04-04T05:47:42;102772.38;;;-0.82;100.00
58534;BME280;44109;52.398;7.024;2023-04-04T05:50:10;102790.50;;;-0.59;100.00
58534;BME280;44109;52.398;7.024;2023-04-04T05:52:37;102797.31;;;-0.45;100.00
58534;BME280;44109;52.398;7.024;2023-04-04T05:55:06;102780.44;;;-0.42;100.00
58534;BME280;44109;52.398;7.024;2023-04-04T05:57:34;102798.78;;;0.13;100.00
58534;BME280;44109;52.398;7.024;2023-04-04T06:00:04;102782.56;;;0.23;100.00
58534;BME280;44109;52.398;7.024;2023-04-04T06:02:34;102802.66;;;0.56;100.00
58534;BME280;44109;52.398;7.024;2023-04-04T06:05:03;102796.53;;;0.49;100.00
58534;BME280;44109;52.398;7.024;2023-04-04T06:07:31;102793.50;;;0.67;100.00
58534;BME280;44109;52.398;7.024;2023-04-04T06:09:58;102790.47;;;1.13;100.00
58534;BME280;44109;52.398;7.024;2023-04-04T06:12:26;102803.06;;;1.41;100.00
58534;BME280;44109;52.398;7.024;2023-04-04T06:14:54;102795.59;;;2.38;100.00
58534;BME280;44109;52.398;7.024;2023-04-04T06:17:23;102811.41;;;2.78;100.00
58534;BME280;44109;52.398;7.024;2023-04-04T06:19:53;102811.59;;;3.49;100.00
58534;BME280;44109;52.398;7.024;2023-04-04T06:22:21;102820.03;;;3.17;100.00
58534;BME280;44109;52.398;7.024;2023-04-04T06:24:48;102808.53;;;3.30;100.00
58534;BME280;44109;52.398;7.024;2023-04-04T06:27:16;102807.44;;;3.26;100.00
58534;BME280;44109;52.398;7.024;2023-04-04T06:29:43;102806.94;;;4.11;100.00
58534;BME280;44109;52.398;7.024;2023-04-04T06:32:11;102824.56;;;4.90;100.00
58534;BME280;44109;52.398;7.024;2023-04-04T06:34:40;102825.81;;;5.18;100.00
58534;BME280;44109;52.398;7.024;2023-04-04T06:37:08;102827.38;;;5.29;100.00
58534;BME280;44109;52.398;7.024;2023-04-04T06:39:36;102829.50;;;6.16;100.00
58534;BME280;44109;52.398;7.024;2023-04-04T06:42:03;102832.97;;;6.56;100.00
58534;BME280;44109;52.398;7.024;2023-04-04T06:44:32;102832.56;;;6.15;100.00
58534;BME280;44109;52.398;7.024;2023-04-04T06:46:59;102827.44;;;6.32;100.00
58534;BME280;44109;52.398;7.024;2023-04-04T06:49:27;102836.13;;;6.68;100.00
58534;BME280;44109;52.398;7.024;2023-04-04T06:51:56;102822.19;;;7.21;100.00
58534;BME280;44109;52.398;7.024;2023-04-04T06:54:24;102825.78;;;7.78;100.00
58534;BME280;44109;52.398;7.024;2023-04-04T06:56:52;102832.34;;;8.15;100.00
58534;BME280;44109;52.398;7.024;2023-04-04T06:59:20;102829.03;;;8.46;100.00
58534;BME280;44109;52.398;7.024;2023-04-04T07:01:48;102808.06;;;8.58;100.00
58534;BME280;44109;52.398;7.024;2023-04-04T07:04:17;102823.31;;;8.70;100.00
58534;BME280;44109;52.398;7.024;2023-04-04T07:06:45;102766.75;;;8.62;100.00
58534;BME280;44109;52.398;7.024;2023-04-04T07:09:14;102823.44;;;9.28;100.00
58534;BME280;44109;52.398;7.024;2023-04-04T07:11:42;102829.91;;;9.60;100.00
58534;BME280;44109;52.398;7.024;2023-04-04T07:14:09;102823.75;;;9.63;100.00
58534;BME280;44109;52.398;7.024;2023-04-04T07:16:37;102804.22;;;9.90;100.00
58534;BME280;44109;52.398;7.024;2023-04-04T07:19:04;102809.34;;;10.28;100.00
58534;BME280;44109;52.398;7.024;2023-04-04T07:21:32;102814.47;;;10.44;100.00
58534;BME280;44109;52.398;7.024;2023-04-04T07:24:00;102803.16;;;10.71;100.00
58534;BME280;44109;52.398;7.024;2023-04-04T07:26:30;102815.53;;;11.13;100.00
58534;BME280;44109;52.398;7.024;2023-04-04T07:28:59;102816.38;;;11.40;100.00
58534;BME280;44109;52.398;7.024;2023-04-04T07:31:26;102810.13;;;11.34;100.00
58534;BME280;44109;52.398;7.024;2023-04-04T07:33:54;102816.00;;;11.76;100.00
58534;BME280;44109;52.398;7.024;2023-04-04T07:36:22;102810.13;;;11.17;81.26
58534;BME280;44109;52.398;7.024;2023-04-04T07:38:49;102813.84;;;12.16;100.00
58534;BME280;44109;52.398;7.024;2023-04-04T07:41:17;102819.38;;;12.72;100.00
58534;BME280;44109;52.398;7.024;2023-04-04T07:43:47;102807.94;;;12.65;92.25
58534;BME280;44109;52.398;7.024;2023-04-04T07:46:15;102810.19;;;13.31;100.00
58534;BME280;44109;52.398;7.024;2023-04-04T07:48:42;102817.19;;;13.37;99.20
58534;BME280;44109;52.398;7.024;2023-04-04T07:51:10;102796.22;;;13.52;76.06
58534;BME280;44109;52.398;7.024;2023-04-04T07:53:38;102802.19;;;13.83;90.74
58534;BME280;44109;52.398;7.024;2023-04-04T07:56:06;102795.50;;;14.09;87.01
58534;BME280;44109;52.398;7.024;2023-04-04T07:58:34;102796.84;;;13.57;71.75
58534;BME280;44109;52.398;7.024;2023-04-04T08:01:04;102797.06;;;13.31;70.54
58534;BME280;44109;52.398;7.024;2023-04-04T08:03:31;102806.81;;;13.79;70.29
58534;BME280;44109;52.398;7.024;2023-04-04T08:05:59;102811.13;;;13.89;71.00
58534;BME280;44109;52.398;7.024;2023-04-04T08:08:26;102793.44;;;14.30;64.45
58534;BME280;44109;52.398;7.024;2023-04-04T08:10:54;102789.59;;;14.35;64.28
58534;BME280;44109;52.398;7.024;2023-04-04T08:13:22;102804.75;;;13.88;70.26
58534;BME280;44109;52.398;7.024;2023-04-04T08:15:49;102798.28;;;13.42;50.51
58534;BME280;44109;52.398;7.024;2023-04-04T08:18:18;102801.25;;;12.57;44.25
58534;BME280;44109;52.398;7.024;2023-04-04T08:20:46;102802.44;;;12.48;56.75
58534;BME280;44109;52.398;7.024;2023-04-04T08:23:14;102794.09;;;10.97;43.66
58534;BME280;44109;52.398;7.024;2023-04-04T08:25:42;102786.22;;;8.57;47.53
58534;BME280;44109;52.398;7.024;2023-04-04T08:28:11;102793.50;;;9.75;52.10
58534;BME280;44109;52.398;7.024;2023-04-04T08:30:38;102741.38;;;12.13;49.31
58534;BME280;44109;52.398;7.024;2023-04-04T08:33:06;102790.53;;;13.27;49.99
58534;BME280;44109;52.398;7.024;2023-04-04T08:35:35;102777.25;;;11.71;38.94
58534;BME280;44109;52.398;7.024;2023-04-04T08:38:03;102788.91;;;11.47;40.29
58534;BME280;44109;52.398;7.024;2023-04-04T08:40:33;102794.06;;;12.18;44.47
58534;BME280;44109;52.398;7.024;2023-04-04T08:43:02;102787.50;;;13.74;42.90
58534;BME280;44109;52.398;7.024;2023-04-04T08:45:32;102783.44;;;14.29;41.50
58534;BME280;44109;52.398;7.024;2023-04-04T08:48:02;102786.22;;;14.17;36.69
58534;BME280;44109;52.398;7.024;2023-04-04T08:50:33;102788.91;;;12.67;36.49
58534;BME280;44109;52.398;7.024;2023-04-04T08:53:04;102784.41;;;13.88;44.45
58534;BME280;44109;52.398;7.024;2023-04-04T08:55:34;102780.66;;;15.03;43.13
58534;BME280;44109;52.398;7.024;2023-04-04T08:58:01;102771.38;;;14.86;33.49
58534;BME280;44109;52.398;7.024;2023-04-04T09:00:30;102774.75;;;15.44;37.60
58534;BME280;44109;52.398;7.024;2023-04-04T09:03:04;102782.56;;;14.86;36.81
58534;BME280;44109;52.398;7.024;2023-04-04T09:05:37;102759.28;;;14.70;35.99
58534;BME280;44109;52.398;7.024;2023-04-04T09:08:05;102773.88;;;12.89;32.58
58534;BME280;44109;52.398;7.024;2023-04-04T09:10:33;102777.88;;;13.30;38.55
58534;BME280;44109;52.398;7.024;2023-04-04T09:13:03;102765.41;;;13.69;31.12
58534;BME280;44109;52.398;7.024;2023-04-04T09:15:31;102778.44;;;11.09;34.96
58534;BME280;44109;52.398;7.024;2023-04-04T09:18:03;102775.72;;;12.85;36.73
58534;BME280;44109;52.398;7.024;2023-04-04T09:20:36;102781.06;;;12.69;33.72
58534;BME280;44109;52.398;7.024;2023-04-04T09:23:06;102772.34;;;10.81;33.53
58534;BME280;44109;52.398;7.024;2023-04-04T09:25:35;102764.53;;;10.12;37.94
58534;BME280;44109;52.398;7.024;2023-04-04T09:28:03;102772.63;;;12.10;37.80
58534;BME280;44109;52.398;7.024;2023-04-04T09:30:32;102768.66;;;12.19;32.03
58534;BME280;44109;52.398;7.024;2023-04-04T09:33:03;102763.56;;;12.89;35.52
58534;BME280;44109;52.398;7.024;2023-04-04T09:35:33;102756.56;;;12.83;33.72
58534;BME280;44109;52.398;7.024;2023-04-04T09:38:04;102763.97;;;13.21;35.08
58534;BME280;44109;52.398;7.024;2023-04-04T09:40:33;102752.81;;;12.79;33.74
58534;BME280;44109;52.398;7.024;2023-04-04T09:43:02;102755.53;;;11.12;35.30
58534;BME280;44109;52.398;7.024;2023-04-04T09:45:35;102743.22;;;10.70;34.24
58534;BME280;44109;52.398;7.024;2023-04-04T09:48:06;102733.00;;;10.31;37.85
58534;BME280;44109;52.398;7.024;2023-04-04T09:50:35;102745.06;;;10.83;37.32
58534;BME280;44109;52.398;7.024;2023-04-04T09:53:05;102744.13;;;11.31;34.48
58534;BME280;44109;52.398;7.024;2023-04-04T09:55:34;102747.97;;;9.99;36.40
58534;BME280;44109;52.398;7.024;2023-04-04T09:58:11;102737.31;;;9.83;35.93
58534;BME280;44109;52.398;7.024;2023-04-04T10:00:40;102738.81;;;9.00;35.19
58534;BME280;44109;52.398;7.024;2023-04-04T10:03:11;102749.06;;;9.89;35.75
58534;BME280;44109;52.398;7.024;2023-04-04T10:05:40;102738.25;;;9.79;35.88
58534;BME280;44109;52.398;7.024;2023-04-04T10:08:17;102699.38;;;9.93;40.07
58534;BME280;44109;52.398;7.024;2023-04-04T10:10:47;102748.63;;;10.75;37.82
58534;BME280;44109;52.398;7.024;2023-04-04T10:13:22;102751.47;;;11.36;37.32
58534;BME280;44109;52.398;7.024;2023-04-04T10:18:21;102730.47;;;10.60;36.46
58534;BME280;44109;52.398;7.024;2023-04-04T10:20:51;102746.69;;;10.84;36.40
58534;BME280;44109;52.398;7.024;2023-04-04T10:23:22;102742.31;;;10.35;30.75
58534;BME280;44109;52.398;7.024;2023-04-04T10:25:52;102747.34;;;10.99;34.33
58534;BME280;44109;52.398;7.024;2023-04-04T10:28:20;102739.84;;;11.08;36.39
58534;BME280;44109;52.398;7.024;2023-04-04T10:30:50;102746.22;;;11.43;36.96
58534;BME280;44109;52.398;7.024;2023-04-04T10:33:25;102752.59;;;10.91;33.34
58534;BME280;44109;52.398;7.024;2023-04-04T10:36:07;102742.78;;;11.63;31.31
58534;BME280;44109;52.398;7.024;2023-04-04T10:38:41;102744.31;;;12.08;31.62
58534;BME280;44109;52.398;7.024;2023-04-04T10:41:12;102733.88;;;12.05;30.65
58534;BME280;44109;52.398;7.024;2023-04-04T10:43:44;102710.88;;;12.25;33.59
58534;BME280;44109;52.398;7.024;2023-04-04T10:46:15;102718.06;;;12.56;33.00
58534;BME280;44109;52.398;7.024;2023-04-04T10:48:46;102724.69;;;12.72;32.80
58534;BME280;44109;52.398;7.024;2023-04-04T10:51:15;102732.47;;;12.58;31.92
58534;BME280;44109;52.398;7.024;2023-04-04T10:53:44;102722.31;;;12.32;32.66
58534;BME280;44109;52.398;7.024;2023-04-04T10:56:12;102694.91;;;11.40;31.12
58534;BME280;44109;52.398;7.024;2023-04-04T10:58:41;102712.75;;;11.05;27.24
58534;BME280;44109;52.398;7.024;2023-04-04T11:01:09;102718.19;;;10.04;28.12
58534;BME280;44109;52.398;7.024;2023-04-04T11:04:15;102720.00;;;10.09;32.91
58534;BME280;44109;52.398;7.024;2023-04-04T11:07:09;102719.75;;;11.54;33.26
58534;BME280;44109;52.398;7.024;2023-04-04T11:09:52;102706.13;;;11.70;34.69
58534;BME280;44109;52.398;7.024;2023-04-04T11:12:25;102711.59;;;11.14;31.25
58534;BME280;44109;52.398;7.024;2023-04-04T11:14:56;102694.91;;;10.14;32.27
58534;BME280;44109;52.398;7.024;2023-04-04T11:17:44;102705.09;;;9.43;31.44
58534;BME280;44109;52.398;7.024;2023-04-04T11:20:31;102696.81;;;9.43;32.41
58534;BME280;44109;52.398;7.024;2023-04-04T11:23:05;102687.00;;;10.38;34.92
58534;BME280;44109;52.398;7.024;2023-04-04T11:25:38;102688.22;;;11.24;36.00
58534;BME280;44109;52.398;7.024;2023-04-04T11:28:10;102685.78;;;10.97;33.67
58534;BME280;44109;52.398;7.024;2023-04-04T11:30:42;102684.06;;;9.64;31.16
58534;BME280;44109;52.398;7.024;2023-04-04T11:33:24;102666.66;;;10.60;33.20
58534;BME280;44109;52.398;7.024;2023-04-04T11:36:03;102666.44;;;9.91;29.50
58534;BME280;44109;52.398;7.024;2023-04-04T11:38:32;102667.94;;;9.66;28.59
58534;BME280;44109;52.398;7.024;2023-04-04T11:41:02;102670.09;;;10.92;30.80
58534;BME280;44109;52.398;7.024;2023-04-04T11:43:33;102662.50;;;12.09;31.86
58534;BME280;44109;52.398;7.024;2023-04-04T11:46:04;102665.38;;;12.72;30.89
58534;BME280;44109;52.398;7.024;2023-04-04T11:48:37;102667.56;;;11.60;28.24
58534;BME280;44109;52.398;7.024;2023-04-04T11:51:05;102653.88;;;10.33;30.44
58534;BME280;44109;52.398;7.024;2023-04-04T11:53:34;102649.66;;;10.45;29.85
58534;BME280;44109;52.398;7.024;2023-04-04T11:56:03;102609.66;;;11.06;30.87
58534;BME280;44109;52.398;7.024;2023-04-04T11:58:34;102655.84;;;11.46;28.22
58534;BME280;44109;52.398;7.024;2023-04-04T12:01:02;102659.13;;;11.30;27.16
58534;BME280;44109;52.398;7.024;2023-04-04T12:03:30;102650.59;;;11.44;25.52
58534;BME280;44109;52.398;7.024;2023-04-04T12:05:58;102636.13;;;11.77;30.23
58534;BME280;44109;52.398;7.024;2023-04-04T12:08:28;102638.66;;;11.43;29.52
58534;BME280;44109;52.398;7.024;2023-04-04T12:11:03;102641.78;;;12.27;28.27
58534;BME280;44109;52.398;7.024;2023-04-04T12:13:40;102628.56;;;11.95;29.88
58534;BME280;44109;52.398;7.024;2023-04-04T12:16:09;102634.34;;;10.82;28.41
58534;BME280;44109;52.398;7.024;2023-04-04T12:18:37;102631.84;;;11.32;28.40
58534;BME280;44109;52.398;7.024;2023-04-04T12:21:06;102632.38;;;12.40;31.16
58534;BME280;44109;52.398;7.024;2023-04-04T12:23:33;102622.66;;;11.40;29.91
58534;BME280;44109;52.398;7.024;2023-04-04T12:26:03;102623.66;;;11.91;27.53
58534;BME280;44109;52.398;7.024;2023-04-04T12:28:32;102630.84;;;11.37;27.23
58534;BME280;44109;52.398;7.024;2023-04-04T12:31:00;102614.63;;;11.48;29.09
58534;BME280;44109;52.398;7.024;2023-04-04T12:33:30;102606.78;;;11.97;29.95
58534;BME280;44109;52.398;7.024;2023-04-04T12:35:59;102620.59;;;12.14;31.34
58534;BME280;44109;52.398;7.024;2023-04-04T12:38:29;102612.09;;;13.15;32.10
58534;BME280;44109;52.398;7.024;2023-04-04T12:40:57;102598.28;;;13.52;28.76
58534;BME280;44109;52.398;7.024;2023-04-04T12:43:27;102602.03;;;10.77;30.25
58534;BME280;44109;52.398;7.024;2023-04-04T12:45:56;102591.72;;;10.69;29.44
58534;BME280;44109;52.398;7.024;2023-04-04T12:48:26;102580.09;;;11.57;28.97
58534;BME280;44109;52.398;7.024;2023-04-04T12:50:56;102585.78;;;12.70;29.54
58534;BME280;44109;52.398;7.024;2023-04-04T12:53:25;102575.50;;;13.04;27.82
58534;BME280;44109;52.398;7.024;2023-04-04T12:55:55;102584.97;;;12.28;26.70
58534;BME280;44109;52.398;7.024;2023-04-04T12:58:30;102580.47;;;12.44;29.69
58534;BME280;44109;52.398;7.024;2023-04-04T13:00:59;102568.53;;;13.80;31.16